Shanghai Dawn — 3FMN2 — position and weather

sailwx.info

Track history (hours):
 
Tides and Currents Weather Stations Pressure Air Temp Water Temp Dewpoint Dewpoint Depression Visibility Wind Speed Wind Dir Waves Ship Positions

Shanghai Dawn

Last reported at 2016-Jun-26 09:12 UTC. Time now 2016-Jul-01 08:14 UTC.
Position N 01°15' E 104°05'.

Length 246 m; draft 10.9 m.

Type: Tanker. MMSI: 356075000.

Date/timePositionNaut miles runAvg speedWind from/ knotsBaromVisibWave heightAir tempDewpointWater temp
2016-Jun-26 09:12N 01°15' E 104°05'5 7.3
2016-Jun-26 08:33N 01°16' E 104°00'2 0.1
2016-Jun-25 15:33N 01°17' E 103°59'2 1.5
2016-Jun-25 14:33N 01°16' E 103°57'2 2.0
2016-Jun-25 13:33N 01°14' E 103°57'7 6.9
2016-Jun-25 12:33N 01°11' E 103°51'  
2016-Jun-22 09:13N 01°11' E 103°39'4 5.7
2016-Jun-22 08:31N 01°09' E 103°42'9 9.0
2016-Jun-22 07:33N 01°11' E 103°50'1110.8
2016-Jun-22 06:30N 01°15' E 104°01'  
Track history (hours):
 
Tides and Currents Weather Stations Pressure Air Temp Water Temp Dewpoint Dewpoint Depression Visibility Wind Speed Wind Dir Waves Ship Positions

Shanghai Dawn

Last reported at 2016-Jun-26 09:12 UTC. Time now 2016-Jul-01 08:14 UTC.
Position N 01°15' E 104°05'.

Length 246 m; draft 10.9 m.

Type: Tanker. MMSI: 356075000.

Date/timePositionNaut miles runAvg speedWind from/ knotsBaromVisibWave heightAir tempDewpointWater temp
2016-Jun-26 09:12N 01°15' E 104°05'5 7.3
2016-Jun-26 08:33N 01°16' E 104°00'2 0.1
2016-Jun-25 15:33N 01°17' E 103°59'2 1.5
2016-Jun-25 14:33N 01°16' E 103°57'2 2.0
2016-Jun-25 13:33N 01°14' E 103°57'7 6.9
2016-Jun-25 12:33N 01°11' E 103°51'  
2016-Jun-22 09:13N 01°11' E 103°39'4 5.7
2016-Jun-22 08:31N 01°09' E 103°42'9 9.0
2016-Jun-22 07:33N 01°11' E 103°50'1110.8
2016-Jun-22 06:30N 01°15' E 104°01'  

Dump ship's entire track history